sensor_id;sensor_type;location;lat;lon;timestamp;P1;durP1;ratioP1;P2;durP2;ratioP2
69323;SDS011;56470;47.350;8.718;2024-03-23T00:51:10;3.50;;;1.52;;
69323;SDS011;56470;47.350;8.718;2024-03-23T00:56:10;3.20;;;1.60;;
69323;SDS011;56470;47.350;8.718;2024-03-23T00:58:39;3.50;;;1.83;;
69323;SDS011;56470;47.350;8.718;2024-03-23T01:01:12;3.25;;;1.67;;
69323;SDS011;56470;47.350;8.718;2024-03-23T01:03:37;2.50;;;1.73;;
69323;SDS011;56470;47.350;8.718;2024-03-23T01:06:08;3.90;;;1.97;;
69323;SDS011;56470;47.350;8.718;2024-03-23T01:08:40;3.72;;;1.73;;
69323;SDS011;56470;47.350;8.718;2024-03-23T01:11:05;3.97;;;1.70;;
69323;SDS011;56470;47.350;8.718;2024-03-23T01:13:30;3.90;;;1.38;;
69323;SDS011;56470;47.350;8.718;2024-03-23T01:15:58;3.23;;;1.80;;
69323;SDS011;56470;47.350;8.718;2024-03-23T01:18:24;3.65;;;2.25;;
69323;SDS011;56470;47.350;8.718;2024-03-23T01:20:51;4.23;;;1.60;;
69323;SDS011;56470;47.350;8.718;2024-03-23T01:23:17;3.78;;;2.38;;
69323;SDS011;56470;47.350;8.718;2024-03-23T01:25:42;3.20;;;2.30;;
69323;SDS011;56470;47.350;8.718;2024-03-23T01:28:08;2.67;;;1.60;;
69323;SDS011;56470;47.350;8.718;2024-03-23T01:30:33;3.57;;;1.70;;
69323;SDS011;56470;47.350;8.718;2024-03-23T01:32:59;5.45;;;2.13;;
69323;SDS011;56470;47.350;8.718;2024-03-23T01:35:25;2.80;;;1.70;;
69323;SDS011;56470;47.350;8.718;2024-03-23T01:37:50;2.53;;;1.63;;
69323;SDS011;56470;47.350;8.718;2024-03-23T01:40:19;5.00;;;1.80;;
69323;SDS011;56470;47.350;8.718;2024-03-23T01:42:57;3.67;;;1.67;;
69323;SDS011;56470;47.350;8.718;2024-03-23T01:45:23;3.55;;;1.73;;
69323;SDS011;56470;47.350;8.718;2024-03-23T01:47:52;3.17;;;1.80;;
69323;SDS011;56470;47.350;8.718;2024-03-23T01:50:18;3.75;;;2.10;;
69323;SDS011;56470;47.350;8.718;2024-03-23T01:52:44;3.95;;;1.50;;
69323;SDS011;56470;47.350;8.718;2024-03-23T01:55:09;3.83;;;2.10;;
69323;SDS011;56470;47.350;8.718;2024-03-23T01:57:35;6.78;;;1.77;;
69323;SDS011;56470;47.350;8.718;2024-03-23T02:00:00;3.43;;;2.00;;
69323;SDS011;56470;47.350;8.718;2024-03-23T02:02:26;3.87;;;2.17;;
69323;SDS011;56470;47.350;8.718;2024-03-23T02:04:51;4.00;;;1.97;;
69323;SDS011;56470;47.350;8.718;2024-03-23T02:07:16;3.97;;;2.17;;
69323;SDS011;56470;47.350;8.718;2024-03-23T02:09:42;4.67;;;2.10;;
69323;SDS011;56470;47.350;8.718;2024-03-23T02:12:08;3.33;;;1.88;;
69323;SDS011;56470;47.350;8.718;2024-03-23T02:14:34;5.03;;;2.40;;
69323;SDS011;56470;47.350;8.718;2024-03-23T02:17:00;3.80;;;2.17;;
69323;SDS011;56470;47.350;8.718;2024-03-23T02:19:25;3.97;;;2.20;;
69323;SDS011;56470;47.350;8.718;2024-03-23T02:21:51;3.17;;;1.77;;
69323;SDS011;56470;47.350;8.718;2024-03-23T02:24:16;3.00;;;1.90;;
69323;SDS011;56470;47.350;8.718;2024-03-23T02:26:41;3.13;;;1.73;;
69323;SDS011;56470;47.350;8.718;2024-03-23T02:29:07;2.87;;;1.60;;
69323;SDS011;56470;47.350;8.718;2024-03-23T02:31:34;4.00;;;2.37;;
69323;SDS011;56470;47.350;8.718;2024-03-23T02:33:59;4.07;;;2.10;;
69323;SDS011;56470;47.350;8.718;2024-03-23T02:36:25;4.67;;;2.00;;
69323;SDS011;56470;47.350;8.718;2024-03-23T02:38:51;3.03;;;1.77;;
69323;SDS011;56470;47.350;8.718;2024-03-23T02:41:17;3.90;;;1.63;;
69323;SDS011;56470;47.350;8.718;2024-03-23T02:43:48;4.25;;;2.17;;
69323;SDS011;56470;47.350;8.718;2024-03-23T02:46:14;3.63;;;1.50;;
69323;SDS011;56470;47.350;8.718;2024-03-23T02:48:40;2.37;;;1.50;;
69323;SDS011;56470;47.350;8.718;2024-03-23T02:51:05;2.67;;;1.73;;
69323;SDS011;56470;47.350;8.718;2024-03-23T02:53:30;3.30;;;2.10;;
69323;SDS011;56470;47.350;8.718;2024-03-23T02:55:57;3.03;;;1.80;;
69323;SDS011;56470;47.350;8.718;2024-03-23T02:58:23;2.50;;;1.52;;
69323;SDS011;56470;47.350;8.718;2024-03-23T03:00:48;2.60;;;1.70;;
69323;SDS011;56470;47.350;8.718;2024-03-23T03:03:14;2.20;;;1.40;;
69323;SDS011;56470;47.350;8.718;2024-03-23T03:05:39;3.83;;;1.77;;
69323;SDS011;56470;47.350;8.718;2024-03-23T03:08:04;3.43;;;2.00;;
69323;SDS011;56470;47.350;8.718;2024-03-23T03:10:30;2.73;;;1.40;;
69323;SDS011;56470;47.350;8.718;2024-03-23T03:12:57;6.43;;;1.80;;
69323;SDS011;56470;47.350;8.718;2024-03-23T03:15:23;3.97;;;2.08;;
69323;SDS011;56470;47.350;8.718;2024-03-23T03:17:48;3.33;;;1.80;;
69323;SDS011;56470;47.350;8.718;2024-03-23T03:20:14;3.20;;;1.35;;
69323;SDS011;56470;47.350;8.718;2024-03-23T03:22:40;3.23;;;1.90;;
69323;SDS011;56470;47.350;8.718;2024-03-23T03:25:06;3.72;;;1.90;;
69323;SDS011;56470;47.350;8.718;2024-03-23T03:27:32;2.33;;;1.43;;
69323;SDS011;56470;47.350;8.718;2024-03-23T03:29:57;2.30;;;1.70;;
69323;SDS011;56470;47.350;8.718;2024-03-23T03:32:23;2.90;;;1.80;;
69323;SDS011;56470;47.350;8.718;2024-03-23T03:34:48;3.00;;;1.67;;
69323;SDS011;56470;47.350;8.718;2024-03-23T03:37:15;2.80;;;1.63;;
69323;SDS011;56470;47.350;8.718;2024-03-23T03:39:40;3.43;;;1.57;;
69323;SDS011;56470;47.350;8.718;2024-03-23T03:42:05;3.13;;;1.70;;
69323;SDS011;56470;47.350;8.718;2024-03-23T03:44:32;2.80;;;1.90;;
69323;SDS011;56470;47.350;8.718;2024-03-23T03:46:58;2.83;;;1.52;;
69323;SDS011;56470;47.350;8.718;2024-03-23T03:49:23;2.33;;;1.70;;
69323;SDS011;56470;47.350;8.718;2024-03-23T03:51:48;4.17;;;2.00;;
69323;SDS011;56470;47.350;8.718;2024-03-23T03:54:14;3.70;;;1.90;;
69323;SDS011;56470;47.350;8.718;2024-03-23T03:56:39;4.47;;;1.93;;
69323;SDS011;56470;47.350;8.718;2024-03-23T03:59:05;4.23;;;1.60;;
69323;SDS011;56470;47.350;8.718;2024-03-23T04:01:30;3.05;;;1.73;;
69323;SDS011;56470;47.350;8.718;2024-03-23T04:03:55;3.00;;;1.50;;
69323;SDS011;56470;47.350;8.718;2024-03-23T04:06:21;2.70;;;1.10;;
69323;SDS011;56470;47.350;8.718;2024-03-23T04:08:46;2.57;;;1.60;;
69323;SDS011;56470;47.350;8.718;2024-03-23T04:11:11;1.93;;;1.20;;
69323;SDS011;56470;47.350;8.718;2024-03-23T04:13:37;2.30;;;1.37;;
69323;SDS011;56470;47.350;8.718;2024-03-23T04:16:02;3.73;;;1.50;;
69323;SDS011;56470;47.350;8.718;2024-03-23T04:18:28;3.17;;;1.40;;
69323;SDS011;56470;47.350;8.718;2024-03-23T04:20:54;4.27;;;1.20;;
69323;SDS011;56470;47.350;8.718;2024-03-23T04:23:19;2.20;;;1.43;;
69323;SDS011;56470;47.350;8.718;2024-03-23T04:25:46;3.13;;;1.70;;
69323;SDS011;56470;47.350;8.718;2024-03-23T04:28:11;2.67;;;1.30;;
69323;SDS011;56470;47.350;8.718;2024-03-23T04:30:37;4.67;;;2.30;;
69323;SDS011;56470;47.350;8.718;2024-03-23T04:33:02;4.15;;;2.33;;
69323;SDS011;56470;47.350;8.718;2024-03-23T04:35:27;2.70;;;1.90;;
69323;SDS011;56470;47.350;8.718;2024-03-23T04:37:53;3.73;;;1.30;;
69323;SDS011;56470;47.350;8.718;2024-03-23T04:40:20;4.03;;;2.20;;
69323;SDS011;56470;47.350;8.718;2024-03-23T04:42:46;3.90;;;1.67;;
69323;SDS011;56470;47.350;8.718;2024-03-23T04:45:11;3.03;;;1.20;;
69323;SDS011;56470;47.350;8.718;2024-03-23T04:47:37;4.10;;;1.73;;
69323;SDS011;56470;47.350;8.718;2024-03-23T04:50:06;3.42;;;1.58;;
69323;SDS011;56470;47.350;8.718;2024-03-23T04:52:31;3.28;;;1.90;;
69323;SDS011;56470;47.350;8.718;2024-03-23T04:54:56;3.07;;;1.77;;
69323;SDS011;56470;47.350;8.718;2024-03-23T04:57:22;4.10;;;1.50;;
69323;SDS011;56470;47.350;8.718;2024-03-23T04:59:48;3.90;;;1.98;;
69323;SDS011;56470;47.350;8.718;2024-03-23T05:02:14;3.63;;;1.97;;
69323;SDS011;56470;47.350;8.718;2024-03-23T05:04:39;2.85;;;1.70;;
69323;SDS011;56470;47.350;8.718;2024-03-23T05:07:08;4.25;;;2.08;;
69323;SDS011;56470;47.350;8.718;2024-03-23T05:09:33;4.20;;;1.93;;
69323;SDS011;56470;47.350;8.718;2024-03-23T05:11:59;4.87;;;1.93;;
69323;SDS011;56470;47.350;8.718;2024-03-23T05:14:25;4.43;;;1.95;;
69323;SDS011;56470;47.350;8.718;2024-03-23T05:16:51;3.45;;;1.85;;
69323;SDS011;56470;47.350;8.718;2024-03-23T05:19:17;2.83;;;1.50;;
69323;SDS011;56470;47.350;8.718;2024-03-23T05:21:42;3.60;;;1.95;;
69323;SDS011;56470;47.350;8.718;2024-03-23T05:24:08;3.57;;;1.63;;
69323;SDS011;56470;47.350;8.718;2024-03-23T05:26:34;4.13;;;1.63;;
69323;SDS011;56470;47.350;8.718;2024-03-23T05:29:00;4.30;;;1.60;;
69323;SDS011;56470;47.350;8.718;2024-03-23T05:31:30;3.93;;;2.07;;
69323;SDS011;56470;47.350;8.718;2024-03-23T05:33:56;2.70;;;1.38;;
69323;SDS011;56470;47.350;8.718;2024-03-23T05:36:22;3.22;;;1.48;;
69323;SDS011;56470;47.350;8.718;2024-03-23T05:38:48;2.20;;;1.10;;
69323;SDS011;56470;47.350;8.718;2024-03-23T05:41:14;3.55;;;1.65;;
69323;SDS011;56470;47.350;8.718;2024-03-23T05:43:39;5.23;;;1.70;;
69323;SDS011;56470;47.350;8.718;2024-03-23T05:46:05;6.73;;;2.17;;
69323;SDS011;56470;47.350;8.718;2024-03-23T05:48:30;3.95;;;2.08;;
69323;SDS011;56470;47.350;8.718;2024-03-23T05:50:56;3.50;;;2.10;;
69323;SDS011;56470;47.350;8.718;2024-03-23T05:53:22;3.67;;;2.08;;
69323;SDS011;56470;47.350;8.718;2024-03-23T05:55:47;8.83;;;2.47;;
69323;SDS011;56470;47.350;8.718;2024-03-23T05:58:14;6.80;;;2.73;;
69323;SDS011;56470;47.350;8.718;2024-03-23T06:00:39;5.90;;;2.80;;
69323;SDS011;56470;47.350;8.718;2024-03-23T06:03:05;4.97;;;2.53;;
69323;SDS011;56470;47.350;8.718;2024-03-23T06:05:30;5.53;;;2.63;;
69323;SDS011;56470;47.350;8.718;2024-03-23T06:07:56;5.32;;;2.67;;
69323;SDS011;56470;47.350;8.718;2024-03-23T06:10:21;6.10;;;2.43;;
69323;SDS011;56470;47.350;8.718;2024-03-23T06:12:46;6.17;;;2.60;;
69323;SDS011;56470;47.350;8.718;2024-03-23T06:15:12;7.77;;;3.30;;
69323;SDS011;56470;47.350;8.718;2024-03-23T06:26:09;6.57;;;3.03;;
69323;SDS011;56470;47.350;8.718;2024-03-23T06:29:30;4.57;;;2.45;;
69323;SDS011;56470;47.350;8.718;2024-03-23T06:32:01;5.95;;;3.70;;
69323;SDS011;56470;47.350;8.718;2024-03-23T06:35:19;5.57;;;2.67;;
69323;SDS011;56470;47.350;8.718;2024-03-23T06:41:12;5.50;;;3.50;;
69323;SDS011;56470;47.350;8.718;2024-03-23T07:12:48;5.65;;;3.35;;
69323;SDS011;56470;47.350;8.718;2024-03-23T07:25:55;4.90;;;3.10;;
69323;SDS011;56470;47.350;8.718;2024-03-23T07:28:59;4.90;;;2.72;;
69323;SDS011;56470;47.350;8.718;2024-03-23T07:58:09;4.45;;;2.40;;
69323;SDS011;56470;47.350;8.718;2024-03-23T08:01:20;3.95;;;2.05;;
69323;SDS011;56470;47.350;8.718;2024-03-23T08:20:22;1.37;;;1.03;;
69323;SDS011;56470;47.350;8.718;2024-03-23T08:23:32;1.73;;;1.42;;
69323;SDS011;56470;47.350;8.718;2024-03-23T08:26:26;3.15;;;1.02;;
69323;SDS011;56470;47.350;8.718;2024-03-23T08:28:51;1.30;;;1.17;;
69323;SDS011;56470;47.350;8.718;2024-03-23T08:31:16;1.63;;;0.80;;
69323;SDS011;56470;47.350;8.718;2024-03-23T08:33:41;1.13;;;0.90;;
69323;SDS011;56470;47.350;8.718;2024-03-23T08:36:10;1.90;;;1.40;;
69323;SDS011;56470;47.350;8.718;2024-03-23T08:38:39;1.70;;;1.15;;
69323;SDS011;56470;47.350;8.718;2024-03-23T08:41:05;1.93;;;0.97;;
69323;SDS011;56470;47.350;8.718;2024-03-23T08:43:32;3.97;;;0.95;;
69323;SDS011;56470;47.350;8.718;2024-03-23T08:46:18;1.85;;;1.02;;
69323;SDS011;56470;47.350;8.718;2024-03-23T08:48:44;2.08;;;0.98;;
69323;SDS011;56470;47.350;8.718;2024-03-23T08:51:12;1.70;;;0.63;;
69323;SDS011;56470;47.350;8.718;2024-03-23T08:53:49;1.10;;;0.60;;
69323;SDS011;56470;47.350;8.718;2024-03-23T08:56:44;1.88;;;1.08;;
69323;SDS011;56470;47.350;8.718;2024-03-23T08:59:09;3.10;;;1.10;;
69323;SDS011;56470;47.350;8.718;2024-03-23T09:01:37;1.70;;;1.10;;
69323;SDS011;56470;47.350;8.718;2024-03-23T09:04:06;2.00;;;1.10;;
69323;SDS011;56470;47.350;8.718;2024-03-23T09:06:31;1.58;;;0.95;;
69323;SDS011;56470;47.350;8.718;2024-03-23T09:08:57;2.87;;;1.30;;
69323;SDS011;56470;47.350;8.718;2024-03-23T09:11:22;3.00;;;0.93;;
69323;SDS011;56470;47.350;8.718;2024-03-23T09:13:47;4.30;;;1.30;;
69323;SDS011;56470;47.350;8.718;2024-03-23T09:16:13;2.50;;;0.90;;
69323;SDS011;56470;47.350;8.718;2024-03-23T09:18:38;3.83;;;1.27;;
69323;SDS011;56470;47.350;8.718;2024-03-23T09:21:04;4.07;;;1.30;;
69323;SDS011;56470;47.350;8.718;2024-03-23T09:23:38;3.42;;;1.40;;
69323;SDS011;56470;47.350;8.718;2024-03-23T09:26:03;6.07;;;1.70;;
69323;SDS011;56470;47.350;8.718;2024-03-23T09:28:29;4.07;;;2.00;;
69323;SDS011;56470;47.350;8.718;2024-03-23T09:30:55;3.50;;;1.40;;
69323;SDS011;56470;47.350;8.718;2024-03-23T09:33:26;4.95;;;1.95;;
69323;SDS011;56470;47.350;8.718;2024-03-23T09:35:52;5.47;;;1.47;;
69323;SDS011;56470;47.350;8.718;2024-03-23T09:40:57;6.35;;;2.00;;
69323;SDS011;56470;47.350;8.718;2024-03-23T09:43:26;4.43;;;1.67;;
69323;SDS011;56470;47.350;8.718;2024-03-23T09:45:54;3.40;;;1.43;;
69323;SDS011;56470;47.350;8.718;2024-03-23T09:48:45;5.40;;;1.20;;
69323;SDS011;56470;47.350;8.718;2024-03-23T09:51:14;6.30;;;1.50;;
69323;SDS011;56470;47.350;8.718;2024-03-23T09:53:49;6.27;;;1.43;;
69323;SDS011;56470;47.350;8.718;2024-03-23T09:56:15;3.58;;;1.27;;
69323;SDS011;56470;47.350;8.718;2024-03-23T09:58:42;4.80;;;1.20;;
69323;SDS011;56470;47.350;8.718;2024-03-23T10:01:07;3.17;;;1.30;;
69323;SDS011;56470;47.350;8.718;2024-03-23T10:03:42;4.68;;;2.13;;
69323;SDS011;56470;47.350;8.718;2024-03-23T10:06:10;4.15;;;2.00;;
69323;SDS011;56470;47.350;8.718;2024-03-23T10:08:36;4.03;;;1.10;;
69323;SDS011;56470;47.350;8.718;2024-03-23T10:11:14;4.43;;;1.48;;
69323;SDS011;56470;47.350;8.718;2024-03-23T10:13:41;4.17;;;1.30;;
69323;SDS011;56470;47.350;8.718;2024-03-23T10:16:08;4.53;;;1.58;;
69323;SDS011;56470;47.350;8.718;2024-03-23T10:18:37;5.85;;;1.65;;
69323;SDS011;56470;47.350;8.718;2024-03-23T10:21:10;5.00;;;1.85;;
69323;SDS011;56470;47.350;8.718;2024-03-23T10:23:40;6.25;;;1.92;;
69323;SDS011;56470;47.350;8.718;2024-03-23T10:26:32;5.10;;;2.13;;
69323;SDS011;56470;47.350;8.718;2024-03-23T10:28:58;5.03;;;1.30;;
69323;SDS011;56470;47.350;8.718;2024-03-23T10:32:07;5.80;;;1.40;;
69323;SDS011;56470;47.350;8.718;2024-03-23T10:34:39;5.68;;;1.60;;
69323;SDS011;56470;47.350;8.718;2024-03-23T10:43:00;4.55;;;1.70;;
69323;SDS011;56470;47.350;8.718;2024-03-23T10:45:30;4.10;;;1.35;;
69323;SDS011;56470;47.350;8.718;2024-03-23T15:15:01;4.38;;;1.15;;
69323;SDS011;56470;47.350;8.718;2024-03-23T15:30:51;6.03;;;1.50;;
69323;SDS011;56470;47.350;8.718;2024-03-23T15:33:17;3.60;;;1.33;;
69323;SDS011;56470;47.350;8.718;2024-03-23T15:39:21;4.77;;;1.70;;
69323;SDS011;56470;47.350;8.718;2024-03-23T15:41:54;6.90;;;1.70;;
69323;SDS011;56470;47.350;8.718;2024-03-23T15:44:19;3.80;;;1.30;;
69323;SDS011;56470;47.350;8.718;2024-03-23T15:46:45;4.10;;;1.50;;
69323;SDS011;56470;47.350;8.718;2024-03-23T15:49:10;6.63;;;1.37;;
69323;SDS011;56470;47.350;8.718;2024-03-23T15:51:35;4.03;;;1.40;;
69323;SDS011;56470;47.350;8.718;2024-03-23T15:54:02;3.28;;;1.77;;
69323;SDS011;56470;47.350;8.718;2024-03-23T15:56:31;5.63;;;1.27;;
69323;SDS011;56470;47.350;8.718;2024-03-23T15:58:56;3.92;;;1.23;;
69323;SDS011;56470;47.350;8.718;2024-03-23T16:01:29;3.07;;;1.90;;
69323;SDS011;56470;47.350;8.718;2024-03-23T16:03:55;3.78;;;1.45;;
69323;SDS011;56470;47.350;8.718;2024-03-23T16:06:20;4.47;;;1.63;;
69323;SDS011;56470;47.350;8.718;2024-03-23T16:08:45;3.07;;;1.10;;
69323;SDS011;56470;47.350;8.718;2024-03-23T16:11:11;3.13;;;1.77;;
69323;SDS011;56470;47.350;8.718;2024-03-23T16:13:36;6.03;;;1.77;;
69323;SDS011;56470;47.350;8.718;2024-03-23T16:16:02;4.37;;;1.20;;
69323;SDS011;56470;47.350;8.718;2024-03-23T16:18:31;3.65;;;1.25;;
69323;SDS011;56470;47.350;8.718;2024-03-23T16:20:57;3.10;;;1.33;;
69323;SDS011;56470;47.350;8.718;2024-03-23T16:23:26;3.45;;;1.50;;
69323;SDS011;56470;47.350;8.718;2024-03-23T16:25:53;4.47;;;1.33;;
69323;SDS011;56470;47.350;8.718;2024-03-23T16:28:26;4.72;;;1.17;;
69323;SDS011;56470;47.350;8.718;2024-03-23T16:30:59;3.60;;;1.23;;
69323;SDS011;56470;47.350;8.718;2024-03-23T16:33:29;3.77;;;1.30;;
69323;SDS011;56470;47.350;8.718;2024-03-23T16:36:01;3.08;;;1.45;;
69323;SDS011;56470;47.350;8.718;2024-03-23T16:38:32;6.10;;;1.60;;
69323;SDS011;56470;47.350;8.718;2024-03-23T16:40:59;3.38;;;1.20;;
69323;SDS011;56470;47.350;8.718;2024-03-23T16:43:25;3.42;;;1.05;;
69323;SDS011;56470;47.350;8.718;2024-03-23T16:45:52;3.43;;;1.20;;
69323;SDS011;56470;47.350;8.718;2024-03-23T16:48:25;2.67;;;1.30;;
69323;SDS011;56470;47.350;8.718;2024-03-23T16:50:51;4.35;;;1.85;;
69323;SDS011;56470;47.350;8.718;2024-03-23T16:53:17;3.60;;;1.40;;
69323;SDS011;56470;47.350;8.718;2024-03-23T16:55:43;7.43;;;1.52;;
69323;SDS011;56470;47.350;8.718;2024-03-23T16:58:08;3.67;;;1.47;;
69323;SDS011;56470;47.350;8.718;2024-03-23T17:00:41;2.45;;;1.35;;
69323;SDS011;56470;47.350;8.718;2024-03-23T17:03:07;7.25;;;2.28;;
69323;SDS011;56470;47.350;8.718;2024-03-23T17:05:38;6.63;;;2.57;;
69323;SDS011;56470;47.350;8.718;2024-03-23T17:08:04;4.15;;;2.08;;
69323;SDS011;56470;47.350;8.718;2024-03-23T17:10:32;5.35;;;2.20;;
69323;SDS011;56470;47.350;8.718;2024-03-23T17:12:58;4.37;;;1.90;;
69323;SDS011;56470;47.350;8.718;2024-03-23T17:15:32;5.75;;;2.05;;
69323;SDS011;56470;47.350;8.718;2024-03-23T17:18:06;3.35;;;1.50;;
69323;SDS011;56470;47.350;8.718;2024-03-23T17:24:20;5.65;;;1.52;;
69323;SDS011;56470;47.350;8.718;2024-03-23T17:33:04;2.47;;;1.30;;
69323;SDS011;56470;47.350;8.718;2024-03-23T17:46:11;4.30;;;1.20;;
69323;SDS011;56470;47.350;8.718;2024-03-23T17:48:36;4.10;;;1.67;;
69323;SDS011;56470;47.350;8.718;2024-03-23T17:51:02;3.20;;;1.30;;
69323;SDS011;56470;47.350;8.718;2024-03-23T17:53:36;4.95;;;1.20;;
69323;SDS011;56470;47.350;8.718;2024-03-23T17:56:03;4.63;;;1.07;;
69323;SDS011;56470;47.350;8.718;2024-03-23T17:59:00;5.63;;;1.67;;
69323;SDS011;56470;47.350;8.718;2024-03-23T18:01:49;3.80;;;1.50;;
69323;SDS011;56470;47.350;8.718;2024-03-23T18:04:14;4.00;;;1.63;;
69323;SDS011;56470;47.350;8.718;2024-03-23T18:06:40;2.72;;;1.15;;
69323;SDS011;56470;47.350;8.718;2024-03-23T18:09:23;3.00;;;1.40;;
69323;SDS011;56470;47.350;8.718;2024-03-23T18:11:48;2.08;;;1.15;;
69323;SDS011;56470;47.350;8.718;2024-03-23T18:14:13;3.23;;;1.20;;
69323;SDS011;56470;47.350;8.718;2024-03-23T18:16:39;3.77;;;1.63;;
69323;SDS011;56470;47.350;8.718;2024-03-23T18:19:04;4.73;;;1.53;;
69323;SDS011;56470;47.350;8.718;2024-03-23T18:21:30;5.73;;;1.47;;
69323;SDS011;56470;47.350;8.718;2024-03-23T18:23:55;4.50;;;1.50;;
69323;SDS011;56470;47.350;8.718;2024-03-23T18:26:20;2.37;;;1.30;;
69323;SDS011;56470;47.350;8.718;2024-03-23T18:28:50;4.25;;;1.15;;
69323;SDS011;56470;47.350;8.718;2024-03-23T18:31:19;4.15;;;1.02;;
69323;SDS011;56470;47.350;8.718;2024-03-23T18:33:45;3.30;;;1.47;;
69323;SDS011;56470;47.350;8.718;2024-03-23T18:36:11;5.65;;;1.95;;
69323;SDS011;56470;47.350;8.718;2024-03-23T18:38:37;3.37;;;1.67;;
69323;SDS011;56470;47.350;8.718;2024-03-23T18:41:02;5.28;;;1.38;;
69323;SDS011;56470;47.350;8.718;2024-03-23T18:43:28;2.97;;;1.63;;
69323;SDS011;56470;47.350;8.718;2024-03-23T18:45:54;2.63;;;1.17;;
69323;SDS011;56470;47.350;8.718;2024-03-23T18:48:19;3.33;;;1.13;;
69323;SDS011;56470;47.350;8.718;2024-03-23T18:50:45;4.60;;;1.40;;
69323;SDS011;56470;47.350;8.718;2024-03-23T18:53:10;5.00;;;1.43;;
69323;SDS011;56470;47.350;8.718;2024-03-23T18:55:36;2.40;;;1.33;;
69323;SDS011;56470;47.350;8.718;2024-03-23T18:58:02;1.63;;;1.13;;
69323;SDS011;56470;47.350;8.718;2024-03-23T19:00:28;2.40;;;1.40;;
69323;SDS011;56470;47.350;8.718;2024-03-23T19:02:54;2.45;;;1.15;;
69323;SDS011;56470;47.350;8.718;2024-03-23T19:05:19;3.47;;;1.40;;
69323;SDS011;56470;47.350;8.718;2024-03-23T19:07:45;3.77;;;1.50;;
69323;SDS011;56470;47.350;8.718;2024-03-23T19:10:10;2.90;;;1.40;;
69323;SDS011;56470;47.350;8.718;2024-03-23T19:12:35;2.73;;;1.00;;
69323;SDS011;56470;47.350;8.718;2024-03-23T19:15:01;2.50;;;1.20;;
69323;SDS011;56470;47.350;8.718;2024-03-23T19:17:27;5.97;;;2.15;;
69323;SDS011;56470;47.350;8.718;2024-03-23T19:19:52;3.20;;;1.30;;
69323;SDS011;56470;47.350;8.718;2024-03-23T19:22:23;1.47;;;1.03;;
69323;SDS011;56470;47.350;8.718;2024-03-23T19:24:49;4.90;;;1.80;;
69323;SDS011;56470;47.350;8.718;2024-03-23T19:27:14;5.27;;;2.20;;
69323;SDS011;56470;47.350;8.718;2024-03-23T19:29:39;1.73;;;0.80;;
69323;SDS011;56470;47.350;8.718;2024-03-23T19:32:05;5.50;;;0.90;;
69323;SDS011;56470;47.350;8.718;2024-03-23T19:34:30;3.13;;;1.43;;
69323;SDS011;56470;47.350;8.718;2024-03-23T19:36:56;2.57;;;0.97;;
69323;SDS011;56470;47.350;8.718;2024-03-23T19:39:21;2.20;;;1.17;;
69323;SDS011;56470;47.350;8.718;2024-03-23T19:41:46;3.20;;;1.20;;
69323;SDS011;56470;47.350;8.718;2024-03-23T19:44:12;3.07;;;1.40;;
69323;SDS011;56470;47.350;8.718;2024-03-23T19:46:37;2.20;;;1.33;;
69323;SDS011;56470;47.350;8.718;2024-03-23T19:49:02;2.43;;;1.17;;
69323;SDS011;56470;47.350;8.718;2024-03-23T19:51:28;2.07;;;1.40;;
69323;SDS011;56470;47.350;8.718;2024-03-23T19:53:53;2.08;;;1.50;;
69323;SDS011;56470;47.350;8.718;2024-03-23T19:56:18;3.37;;;1.57;;
69323;SDS011;56470;47.350;8.718;2024-03-23T19:58:44;3.50;;;2.10;;
69323;SDS011;56470;47.350;8.718;2024-03-23T20:01:16;3.13;;;1.50;;
69323;SDS011;56470;47.350;8.718;2024-03-23T20:03:46;3.17;;;1.77;;
69323;SDS011;56470;47.350;8.718;2024-03-23T20:06:15;3.92;;;1.73;;
69323;SDS011;56470;47.350;8.718;2024-03-23T20:08:42;7.30;;;3.03;;
69323;SDS011;56470;47.350;8.718;2024-03-23T20:11:07;4.90;;;2.43;;
69323;SDS011;56470;47.350;8.718;2024-03-23T20:13:33;4.20;;;1.83;;
69323;SDS011;56470;47.350;8.718;2024-03-23T20:15:59;4.03;;;1.77;;
69323;SDS011;56470;47.350;8.718;2024-03-23T20:18:29;3.20;;;1.70;;
69323;SDS011;56470;47.350;8.718;2024-03-23T20:20:56;3.05;;;1.95;;
69323;SDS011;56470;47.350;8.718;2024-03-23T20:23:23;2.95;;;1.38;;
69323;SDS011;56470;47.350;8.718;2024-03-23T20:25:58;3.28;;;1.90;;
69323;SDS011;56470;47.350;8.718;2024-03-23T20:28:25;3.90;;;1.57;;
69323;SDS011;56470;47.350;8.718;2024-03-23T20:30:57;2.63;;;1.33;;
69323;SDS011;56470;47.350;8.718;2024-03-23T20:33:24;2.67;;;1.45;;
69323;SDS011;56470;47.350;8.718;2024-03-23T20:35:50;2.47;;;1.35;;
69323;SDS011;56470;47.350;8.718;2024-03-23T20:38:15;4.03;;;1.73;;
69323;SDS011;56470;47.350;8.718;2024-03-23T20:40:41;4.10;;;1.20;;
69323;SDS011;56470;47.350;8.718;2024-03-23T20:43:08;2.63;;;0.98;;
69323;SDS011;56470;47.350;8.718;2024-03-23T20:45:37;4.22;;;1.30;;
69323;SDS011;56470;47.350;8.718;2024-03-23T20:48:03;4.78;;;1.50;;
69323;SDS011;56470;47.350;8.718;2024-03-23T20:50:29;4.10;;;1.37;;
69323;SDS011;56470;47.350;8.718;2024-03-23T20:52:54;3.10;;;1.67;;
69323;SDS011;56470;47.350;8.718;2024-03-23T20:55:20;2.63;;;1.40;;
69323;SDS011;56470;47.350;8.718;2024-03-23T20:57:46;4.47;;;1.67;;
69323;SDS011;56470;47.350;8.718;2024-03-23T21:00:12;2.15;;;0.95;;
69323;SDS011;56470;47.350;8.718;2024-03-23T21:02:38;4.10;;;1.45;;
69323;SDS011;56470;47.350;8.718;2024-03-23T21:05:03;3.73;;;1.40;;
69323;SDS011;56470;47.350;8.718;2024-03-23T21:07:29;3.42;;;1.35;;
69323;SDS011;56470;47.350;8.718;2024-03-23T21:09:55;3.13;;;1.37;;
69323;SDS011;56470;47.350;8.718;2024-03-23T21:12:20;2.37;;;1.33;;
69323;SDS011;56470;47.350;8.718;2024-03-23T21:14:45;1.83;;;1.33;;
69323;SDS011;56470;47.350;8.718;2024-03-23T21:17:11;2.72;;;1.27;;
69323;SDS011;56470;47.350;8.718;2024-03-23T21:19:36;2.37;;;1.23;;
69323;SDS011;56470;47.350;8.718;2024-03-23T21:22:02;1.60;;;1.17;;
69323;SDS011;56470;47.350;8.718;2024-03-23T21:24:28;1.60;;;1.13;;
69323;SDS011;56470;47.350;8.718;2024-03-23T21:26:54;2.08;;;1.00;;
69323;SDS011;56470;47.350;8.718;2024-03-23T21:29:19;1.30;;;0.90;;
69323;SDS011;56470;47.350;8.718;2024-03-23T21:31:45;2.97;;;1.60;;
69323;SDS011;56470;47.350;8.718;2024-03-23T21:34:10;2.65;;;1.30;;
69323;SDS011;56470;47.350;8.718;2024-03-23T21:36:36;1.90;;;0.70;;
69323;SDS011;56470;47.350;8.718;2024-03-23T21:39:02;2.20;;;1.17;;
69323;SDS011;56470;47.350;8.718;2024-03-23T21:41:32;2.27;;;0.70;;
69323;SDS011;56470;47.350;8.718;2024-03-23T21:43:57;3.53;;;1.02;;
69323;SDS011;56470;47.350;8.718;2024-03-23T21:46:23;1.93;;;1.17;;
69323;SDS011;56470;47.350;8.718;2024-03-23T21:48:48;1.93;;;1.13;;
69323;SDS011;56470;47.350;8.718;2024-03-23T21:51:14;1.60;;;1.40;;
69323;SDS011;56470;47.350;8.718;2024-03-23T21:53:42;1.55;;;0.80;;
69323;SDS011;56470;47.350;8.718;2024-03-23T21:56:11;1.67;;;1.03;;
69323;SDS011;56470;47.350;8.718;2024-03-23T21:58:36;1.60;;;0.98;;
69323;SDS011;56470;47.350;8.718;2024-03-23T22:01:05;2.00;;;1.10;;
69323;SDS011;56470;47.350;8.718;2024-03-23T22:03:33;2.70;;;1.00;;
69323;SDS011;56470;47.350;8.718;2024-03-23T22:05:59;1.60;;;1.20;;
69323;SDS011;56470;47.350;8.718;2024-03-23T22:08:25;2.07;;;1.40;;
69323;SDS011;56470;47.350;8.718;2024-03-23T22:10:51;1.70;;;1.30;;
69323;SDS011;56470;47.350;8.718;2024-03-23T22:13:17;2.42;;;1.17;;
69323;SDS011;56470;47.350;8.718;2024-03-23T22:15:43;2.75;;;1.40;;
69323;SDS011;56470;47.350;8.718;2024-03-23T22:18:10;2.72;;;1.33;;
69323;SDS011;56470;47.350;8.718;2024-03-23T22:20:38;2.67;;;1.20;;
69323;SDS011;56470;47.350;8.718;2024-03-23T22:23:05;2.67;;;1.20;;
69323;SDS011;56470;47.350;8.718;2024-03-23T22:25:31;2.08;;;1.20;;
69323;SDS011;56470;47.350;8.718;2024-03-23T22:27:57;3.87;;;1.37;;
69323;SDS011;56470;47.350;8.718;2024-03-23T22:30:22;2.42;;;1.00;;
69323;SDS011;56470;47.350;8.718;2024-03-23T22:32:48;2.07;;;1.10;;